createdAt,value
2023-02-07T00:01:27.166Z,-2.71
2023-02-07T00:03:56.841Z,-3.03
2023-02-07T00:06:27.544Z,-2.93
2023-02-07T00:08:54.822Z,-2.87
2023-02-07T00:11:23.616Z,-2.93
2023-02-07T00:13:53.931Z,-2.87
2023-02-07T00:16:21.891Z,-2.93
2023-02-07T00:18:49.631Z,-3.03
2023-02-07T00:21:18.667Z,-3.02
2023-02-07T00:23:46.893Z,-3.00
2023-02-07T00:26:16.059Z,-3.08
2023-02-07T00:28:45.474Z,-3.04
2023-02-07T00:31:19.182Z,-3.05
2023-02-07T00:33:47.534Z,-3.10
2023-02-07T00:36:20.116Z,-3.20
2023-02-07T00:38:47.833Z,-3.26
2023-02-07T00:41:18.422Z,-3.18
2023-02-07T00:43:47.796Z,-3.23
2023-02-07T00:46:15.449Z,-3.26
2023-02-07T00:48:42.445Z,-3.23
2023-02-07T00:51:10.940Z,-3.37
2023-02-07T00:53:39.628Z,-3.22
2023-02-07T00:56:08.746Z,-3.02
2023-02-07T00:58:36.400Z,-3.03
2023-02-07T01:01:03.928Z,-3.36
2023-02-07T01:03:31.245Z,-3.37
2023-02-07T01:05:58.217Z,-3.42
2023-02-07T01:08:25.041Z,-3.52
2023-02-07T01:10:52.077Z,-3.45
2023-02-07T01:13:19.260Z,-3.32
2023-02-07T01:15:48.718Z,-3.37
2023-02-07T01:18:16.288Z,-3.41
2023-02-07T01:20:43.317Z,-3.52
2023-02-07T01:23:11.603Z,-3.36
2023-02-07T01:25:40.052Z,-3.43
2023-02-07T01:28:07.897Z,-3.39
2023-02-07T01:30:34.844Z,-3.53
2023-02-07T01:33:01.771Z,-3.62
2023-02-07T01:35:28.782Z,-3.76
2023-02-07T01:37:55.609Z,-3.72
2023-02-07T01:40:22.498Z,-3.65
2023-02-07T01:42:49.560Z,-3.68
2023-02-07T01:45:30.488Z,-3.73
2023-02-07T01:48:02.355Z,-3.64
2023-02-07T01:50:30.409Z,-3.57
2023-02-07T01:53:00.438Z,-3.53
2023-02-07T01:55:31.784Z,-3.51
2023-02-07T01:58:00.990Z,-3.44
2023-02-07T02:03:04.321Z,-3.65
2023-02-07T02:05:32.814Z,-3.45
2023-02-07T02:07:59.666Z,-3.60
2023-02-07T02:10:50.681Z,-3.52
2023-02-07T02:13:30.686Z,-3.81
2023-02-07T02:16:13.523Z,-3.92
2023-02-07T02:19:06.124Z,-3.83
2023-02-07T02:21:57.370Z,-3.85
2023-02-07T02:24:33.104Z,-3.62
2023-02-07T02:27:27.337Z,-3.57
2023-02-07T02:30:20.809Z,-3.75
2023-02-07T02:33:13.154Z,-3.93
2023-02-07T02:36:04.607Z,-3.90
2023-02-07T02:39:16.344Z,-3.89
2023-02-07T02:42:23.589Z,-4.06
2023-02-07T02:45:02.106Z,-4.11
2023-02-07T02:47:32.185Z,-3.98
2023-02-07T02:49:59.457Z,-4.13
2023-02-07T02:52:48.495Z,-4.15
2023-02-07T02:55:18.149Z,-4.22
2023-02-07T02:58:03.594Z,-4.15
2023-02-07T03:00:38.920Z,-4.21
2023-02-07T03:03:29.808Z,-4.26
2023-02-07T03:06:14.479Z,-4.30
2023-02-07T03:09:00.731Z,-4.21
2023-02-07T03:11:32.308Z,-4.23
2023-02-07T03:14:27.062Z,-4.13
2023-02-07T03:17:14.680Z,-4.30
2023-02-07T03:20:10.067Z,-4.26
2023-02-07T03:22:37.956Z,-4.14
2023-02-07T03:25:06.652Z,-4.14
2023-02-07T03:27:35.112Z,-4.22
2023-02-07T03:30:07.314Z,-4.34
2023-02-07T03:32:42.230Z,-4.39
2023-02-07T03:35:18.333Z,-4.37
2023-02-07T03:37:49.963Z,-4.20
2023-02-07T03:40:17.504Z,-4.55
2023-02-07T03:42:55.606Z,-4.46
2023-02-07T03:45:23.114Z,-4.45
2023-02-07T03:47:51.532Z,-4.59
2023-02-07T03:50:18.475Z,-4.75
2023-02-07T03:52:45.259Z,-4.63
2023-02-07T03:55:12.667Z,-4.59
2023-02-07T03:57:39.696Z,-4.63
2023-02-07T04:00:07.584Z,-4.67
2023-02-07T04:02:34.416Z,-4.65
2023-02-07T04:05:01.358Z,-4.55
2023-02-07T04:07:28.196Z,-4.58
2023-02-07T04:09:55.035Z,-4.54
2023-02-07T04:12:22.246Z,-4.46
2023-02-07T04:14:49.152Z,-4.41
2023-02-07T04:17:16.037Z,-4.42
2023-02-07T04:19:43.004Z,-4.57
2023-02-07T04:22:11.215Z,-4.55
2023-02-07T04:24:38.137Z,-4.62
2023-02-07T04:27:05.081Z,-4.49
2023-02-07T04:29:32.003Z,-4.78
2023-02-07T04:31:59.269Z,-4.68
2023-02-07T04:34:26.787Z,-4.61
2023-02-07T04:36:56.154Z,-4.69
2023-02-07T04:39:23.255Z,-4.76
2023-02-07T04:41:50.105Z,-4.86
2023-02-07T04:44:17.024Z,-4.75
2023-02-07T04:46:43.892Z,-4.61
2023-02-07T04:49:10.841Z,-4.52
2023-02-07T04:51:37.652Z,-4.49
2023-02-07T04:54:04.577Z,-4.77
2023-02-07T04:56:31.556Z,-4.75
2023-02-07T04:58:58.366Z,-4.75
2023-02-07T05:01:25.265Z,-4.94
2023-02-07T05:03:52.245Z,-4.94
2023-02-07T05:06:19.100Z,-4.99
2023-02-07T05:08:45.908Z,-4.92
2023-02-07T05:11:13.799Z,-4.79
2023-02-07T05:13:40.907Z,-4.88
2023-02-07T05:16:08.006Z,-4.75
2023-02-07T05:18:35.179Z,-4.91
2023-02-07T05:21:02.015Z,-4.93
2023-02-07T05:23:28.852Z,-4.80
2023-02-07T05:25:55.668Z,-4.76
2023-02-07T05:28:22.498Z,-4.90
2023-02-07T05:30:53.574Z,-4.72
2023-02-07T05:33:20.562Z,-4.82
2023-02-07T05:35:47.588Z,-4.79
2023-02-07T05:38:19.744Z,-4.94
2023-02-07T05:40:47.789Z,-5.03
2023-02-07T05:43:15.042Z,-4.99
2023-02-07T05:45:42.055Z,-5.00
2023-02-07T05:48:09.097Z,-4.84
2023-02-07T05:50:36.070Z,-4.96
2023-02-07T05:53:03.696Z,-5.03
2023-02-07T05:55:30.963Z,-4.96
2023-02-07T05:57:57.849Z,-4.99
2023-02-07T06:00:24.753Z,-5.04
2023-02-07T06:02:51.687Z,-5.06
2023-02-07T06:05:23.185Z,-4.85
2023-02-07T06:07:51.581Z,-4.77
2023-02-07T06:10:18.963Z,-4.53
2023-02-07T06:12:45.781Z,-4.39
2023-02-07T06:15:12.676Z,-4.37
2023-02-07T06:17:39.560Z,-4.39
2023-02-07T06:20:06.837Z,-4.35
2023-02-07T06:22:33.701Z,-4.29
2023-02-07T06:25:00.493Z,-4.21
2023-02-07T06:27:27.420Z,-4.17
2023-02-07T06:29:54.357Z,-4.02
2023-02-07T06:32:39.658Z,-3.55
2023-02-07T06:35:07.260Z,-2.31
2023-02-07T06:37:34.477Z,-1.77
2023-02-07T06:40:01.379Z,-1.80
2023-02-07T06:42:28.306Z,-1.07
2023-02-07T06:44:55.228Z,-0.50
2023-02-07T06:47:22.047Z,0.55
2023-02-07T06:49:48.971Z,1.01
2023-02-07T06:52:16.310Z,0.61
2023-02-07T06:54:43.494Z,0.76
2023-02-07T06:57:10.573Z,1.08
2023-02-07T06:59:37.641Z,1.77
2023-02-07T07:02:04.917Z,2.30
2023-02-07T07:04:32.022Z,2.53
2023-02-07T07:06:58.863Z,2.80
2023-02-07T07:09:25.803Z,3.31
2023-02-07T07:11:52.658Z,3.67
2023-02-07T07:14:19.590Z,3.93
2023-02-07T07:16:47.810Z,3.89
2023-02-07T07:19:14.708Z,5.00
2023-02-07T07:21:41.518Z,5.46
2023-02-07T07:24:08.623Z,5.17
2023-02-07T07:26:48.414Z,5.23
2023-02-07T07:29:15.618Z,5.50
2023-02-07T07:31:42.603Z,5.38
2023-02-07T07:34:09.459Z,5.37
2023-02-07T07:36:36.381Z,5.75
2023-02-07T07:39:04.076Z,5.82
2023-02-07T07:41:30.989Z,6.49
2023-02-07T07:43:57.818Z,7.13
2023-02-07T07:46:24.860Z,6.56
2023-02-07T07:48:51.712Z,6.38
2023-02-07T07:51:18.745Z,5.70
2023-02-07T07:53:45.657Z,5.86
2023-02-07T07:56:12.440Z,5.88
2023-02-07T07:58:39.258Z,5.81
2023-02-07T08:01:06.226Z,6.27
2023-02-07T08:03:33.172Z,5.67
2023-02-07T08:06:00.108Z,5.61
2023-02-07T08:08:27.090Z,5.93
2023-02-07T08:10:53.940Z,5.64
2023-02-07T08:13:20.899Z,5.76
2023-02-07T08:15:48.124Z,5.35
2023-02-07T08:18:14.979Z,5.82
2023-02-07T08:20:41.780Z,5.59
2023-02-07T08:23:08.900Z,5.43
2023-02-07T08:25:35.725Z,4.89
2023-02-07T08:28:04.520Z,4.80
2023-02-07T08:30:31.790Z,4.93
2023-02-07T08:32:58.641Z,5.32
2023-02-07T08:35:26.679Z,5.53
2023-02-07T08:37:54.261Z,5.51
2023-02-07T08:40:21.753Z,6.15
2023-02-07T08:42:48.567Z,6.71
2023-02-07T08:45:17.844Z,6.49
2023-02-07T08:47:46.138Z,5.98
2023-02-07T08:50:17.788Z,5.51
2023-02-07T08:52:45.145Z,4.53
2023-02-07T08:55:12.689Z,3.20
2023-02-07T08:57:39.534Z,3.10
2023-02-07T09:00:07.669Z,3.41
2023-02-07T09:02:34.799Z,3.59
2023-02-07T09:05:20.412Z,4.77
2023-02-07T09:07:47.259Z,4.24
2023-02-07T09:10:15.647Z,3.68
2023-02-07T09:12:42.560Z,3.49
2023-02-07T09:15:09.768Z,3.60
2023-02-07T09:17:37.354Z,3.39
2023-02-07T09:20:04.565Z,3.74
2023-02-07T09:22:31.809Z,3.89
2023-02-07T09:24:59.372Z,3.89
2023-02-07T09:27:26.279Z,3.25
2023-02-07T09:29:53.105Z,3.52
2023-02-07T09:32:20.271Z,3.41
2023-02-07T09:34:47.144Z,3.60
2023-02-07T09:37:14.057Z,4.53
2023-02-07T09:39:42.822Z,4.94
2023-02-07T09:42:36.036Z,4.34
2023-02-07T09:45:22.421Z,4.89
2023-02-07T09:47:54.525Z,4.87
2023-02-07T09:50:26.215Z,3.87
2023-02-07T09:53:15.660Z,4.20
2023-02-07T09:55:55.338Z,3.70
2023-02-07T09:58:44.291Z,2.71
2023-02-07T10:01:38.142Z,2.90
2023-02-07T10:04:22.984Z,2.79
2023-02-07T10:06:57.212Z,3.09
2023-02-07T10:09:55.706Z,4.14
2023-02-07T10:12:48.532Z,4.35
2023-02-07T10:15:48.478Z,4.72
2023-02-07T10:18:30.408Z,4.91
2023-02-07T10:21:31.445Z,5.37
2023-02-07T10:24:23.341Z,5.82
2023-02-07T10:26:54.814Z,5.11
2023-02-07T10:30:05.095Z,3.52
2023-02-07T10:32:36.045Z,3.06
2023-02-07T10:35:16.792Z,3.53
2023-02-07T10:37:45.750Z,3.25
2023-02-07T10:40:44.357Z,2.83
2023-02-07T10:43:25.119Z,2.77
2023-02-07T10:46:00.874Z,2.68
2023-02-07T10:48:33.693Z,2.62
2023-02-07T10:51:02.925Z,2.44
2023-02-07T10:53:54.991Z,3.03
2023-02-07T10:56:28.064Z,3.26
2023-02-07T10:58:58.176Z,2.91
2023-02-07T11:01:28.034Z,2.93
2023-02-07T11:03:55.344Z,2.94
2023-02-07T11:07:00.181Z,2.73
2023-02-07T11:09:27.776Z,2.79
2023-02-07T11:11:55.332Z,3.02
2023-02-07T11:14:28.783Z,3.02
2023-02-07T11:16:57.962Z,2.72
2023-02-07T11:19:28.363Z,2.74
2023-02-07T11:22:17.834Z,2.26
2023-02-07T11:24:46.304Z,2.25
2023-02-07T11:27:23.790Z,2.68
2023-02-07T11:29:57.029Z,2.37
2023-02-07T11:32:26.575Z,2.40
2023-02-07T11:34:58.855Z,2.60
2023-02-07T11:37:33.781Z,2.75
2023-02-07T11:40:44.594Z,2.64
2023-02-07T11:43:15.840Z,2.86
2023-02-07T11:45:52.150Z,2.52
2023-02-07T11:48:25.577Z,2.39
2023-02-07T11:50:58.313Z,2.23
2023-02-07T11:53:32.786Z,2.19
2023-02-07T11:55:59.712Z,2.41
2023-02-07T11:58:37.117Z,2.29
2023-02-07T12:01:06.578Z,2.44
2023-02-07T12:03:52.896Z,2.35
2023-02-07T12:06:23.332Z,2.44
2023-02-07T12:08:52.709Z,2.12
2023-02-07T12:11:28.691Z,2.22
2023-02-07T12:14:11.286Z,2.01
2023-02-07T12:17:00.278Z,2.03
2023-02-07T12:19:44.021Z,2.01
2023-02-07T12:22:18.863Z,2.05
2023-02-07T12:24:55.018Z,1.93
2023-02-07T12:27:29.821Z,2.03
2023-02-07T12:30:14.054Z,1.87
2023-02-07T12:32:59.086Z,1.97
2023-02-07T12:35:35.645Z,2.10
2023-02-07T12:38:12.681Z,2.09
2023-02-07T12:41:16.008Z,1.88
2023-02-07T12:43:51.591Z,1.93
2023-02-07T12:46:37.342Z,1.99
2023-02-07T12:49:28.724Z,1.94
2023-02-07T12:52:01.332Z,1.92
2023-02-07T12:54:39.862Z,2.22
2023-02-07T12:58:00.381Z,2.44
2023-02-07T13:01:08.556Z,2.49
2023-02-07T13:03:56.123Z,2.51
2023-02-07T13:06:37.140Z,2.40
2023-02-07T13:09:42.321Z,2.34
2023-02-07T13:12:10.041Z,2.33
2023-02-07T13:15:21.031Z,2.24
2023-02-07T13:18:06.784Z,1.84
2023-02-07T13:20:59.900Z,1.79
2023-02-07T13:23:30.956Z,1.89
2023-02-07T13:26:12.300Z,1.73
2023-02-07T13:28:45.561Z,1.63
2023-02-07T13:31:18.583Z,1.33
2023-02-07T13:33:50.993Z,1.70
2023-02-07T13:36:51.989Z,1.72
2023-02-07T13:39:41.202Z,1.47
2023-02-07T13:42:19.680Z,1.12
2023-02-07T13:45:11.111Z,1.11
2023-02-07T13:48:05.773Z,1.46
2023-02-07T13:50:58.478Z,1.44
2023-02-07T13:53:51.936Z,1.21
2023-02-07T13:56:50.047Z,1.37
2023-02-07T13:59:41.322Z,1.20
2023-02-07T14:02:20.533Z,1.14
2023-02-07T14:04:49.760Z,1.30
2023-02-07T14:07:30.040Z,1.39
2023-02-07T14:09:59.068Z,1.41
2023-02-07T14:12:33.348Z,1.26
2023-02-07T14:15:28.433Z,1.36
2023-02-07T14:17:59.940Z,1.34
2023-02-07T14:20:35.955Z,1.29
2023-02-07T14:23:18.785Z,1.19
2023-02-07T14:25:47.438Z,1.09
2023-02-07T14:28:20.169Z,1.11
2023-02-07T14:30:58.556Z,1.23
2023-02-07T14:33:37.174Z,1.21
2023-02-07T14:36:12.773Z,1.14
2023-02-07T14:38:43.750Z,1.15
2023-02-07T14:41:19.885Z,1.10
2023-02-07T14:44:10.169Z,1.20
2023-02-07T14:46:59.180Z,1.09
2023-02-07T14:49:44.476Z,1.15
2023-02-07T14:52:27.388Z,1.05
2023-02-07T14:55:03.129Z,0.98
2023-02-07T14:57:56.063Z,0.82
2023-02-07T15:00:28.953Z,0.83
2023-02-07T15:03:03.423Z,0.97
2023-02-07T15:05:39.125Z,0.88
2023-02-07T15:08:14.586Z,0.83
2023-02-07T15:10:53.884Z,0.80
2023-02-07T15:13:29.719Z,0.90
2023-02-07T15:16:16.734Z,0.67
2023-02-07T15:18:55.466Z,0.63
2023-02-07T15:21:46.312Z,0.50
2023-02-07T15:24:28.230Z,0.65
2023-02-07T15:26:58.738Z,0.50
2023-02-07T15:29:30.898Z,0.56
2023-02-07T15:31:58.260Z,0.54
2023-02-07T15:34:31.951Z,0.51
2023-02-07T15:37:15.308Z,0.12
2023-02-07T15:39:42.783Z,0.19
2023-02-07T15:42:16.733Z,0.31
2023-02-07T15:45:01.616Z,0.32
2023-02-07T15:47:28.354Z,0.40
2023-02-07T15:50:04.212Z,0.39
2023-02-07T15:52:44.831Z,0.49
2023-02-07T15:55:30.052Z,0.48
2023-02-07T15:57:56.992Z,0.49
2023-02-07T16:00:28.638Z,0.49
2023-02-07T16:03:01.352Z,0.60
2023-02-07T16:05:33.017Z,0.56
2023-02-07T16:08:01.921Z,0.55
2023-02-07T16:10:35.398Z,0.42
2023-02-07T16:13:18.262Z,0.49
2023-02-07T16:15:59.772Z,0.46
2023-02-07T16:18:48.554Z,0.48
2023-02-07T16:21:23.750Z,0.44
2023-02-07T16:23:54.124Z,0.36
2023-02-07T16:26:25.814Z,0.31
2023-02-07T16:28:52.693Z,0.30
2023-02-07T16:31:19.733Z,0.27
2023-02-07T16:33:46.687Z,0.36
2023-02-07T16:36:16.844Z,0.39
2023-02-07T16:38:44.289Z,0.40
2023-02-07T16:41:28.485Z,0.32
2023-02-07T16:43:55.793Z,0.18
2023-02-07T16:46:22.590Z,0.20
2023-02-07T16:48:49.477Z,0.26
2023-02-07T16:51:17.055Z,0.22
2023-02-07T16:53:44.289Z,0.30
2023-02-07T16:56:25.907Z,0.44
2023-02-07T16:58:52.782Z,0.46
2023-02-07T17:01:21.813Z,0.42
2023-02-07T17:03:49.113Z,1.07
2023-02-07T17:06:17.945Z,0.79
2023-02-07T17:08:45.937Z,0.74
2023-02-07T17:11:21.004Z,0.65
2023-02-07T17:13:47.821Z,0.42
2023-02-07T17:16:15.263Z,0.43
2023-02-07T17:19:01.682Z,0.55
2023-02-07T17:21:28.467Z,0.61
2023-02-07T17:23:55.270Z,0.50
2023-02-07T17:26:30.158Z,0.41
2023-02-07T17:28:56.998Z,0.40
2023-02-07T17:31:24.394Z,0.38
2023-02-07T17:33:52.543Z,0.46
2023-02-07T17:36:20.386Z,0.47
2023-02-07T17:38:47.330Z,0.45
2023-02-07T17:41:15.812Z,0.39
2023-02-07T17:43:42.991Z,0.55
2023-02-07T17:46:23.641Z,0.50
2023-02-07T17:48:51.540Z,0.46
2023-02-07T17:51:23.912Z,0.54
2023-02-07T17:53:51.471Z,0.53
2023-02-07T17:56:28.539Z,0.42
2023-02-07T17:58:58.464Z,0.53
2023-02-07T18:01:25.383Z,0.61
2023-02-07T18:03:54.255Z,0.61
2023-02-07T18:06:24.076Z,0.63
2023-02-07T18:08:50.966Z,0.48
2023-02-07T18:11:18.195Z,0.45
2023-02-07T18:13:48.836Z,0.48
2023-02-07T18:16:18.354Z,0.45
2023-02-07T18:18:45.576Z,0.46
2023-02-07T18:21:13.616Z,0.48
2023-02-07T18:23:43.109Z,0.47
2023-02-07T18:26:15.799Z,0.56
2023-02-07T18:28:43.961Z,0.47
2023-02-07T18:31:12.955Z,0.58
2023-02-07T18:33:39.934Z,0.60
2023-02-07T18:36:07.876Z,0.57
2023-02-07T18:38:53.189Z,0.62
2023-02-07T18:41:23.601Z,0.51
2023-02-07T18:43:50.886Z,0.60
2023-02-07T18:46:19.561Z,0.56
2023-02-07T18:48:49.817Z,0.51
2023-02-07T18:51:36.297Z,0.72
2023-02-07T18:54:03.282Z,0.67
2023-02-07T18:56:30.974Z,0.61
2023-02-07T18:58:59.103Z,0.68
2023-02-07T19:01:28.735Z,0.58
2023-02-07T19:03:58.602Z,0.69
2023-02-07T19:06:31.988Z,0.65
2023-02-07T19:08:59.179Z,0.65
2023-02-07T19:11:44.612Z,0.69
2023-02-07T19:14:18.990Z,0.67
2023-02-07T19:16:46.895Z,0.61
2023-02-07T19:19:16.709Z,0.48
2023-02-07T19:21:44.027Z,0.55
2023-02-07T19:24:18.607Z,0.58
2023-02-07T19:26:50.371Z,0.65
2023-02-07T19:29:20.499Z,0.66
2023-02-07T19:31:47.395Z,0.74
2023-02-07T19:34:15.629Z,0.62
2023-02-07T19:36:42.620Z,0.64
2023-02-07T19:39:10.744Z,0.56
2023-02-07T19:41:37.601Z,0.54
2023-02-07T19:44:04.654Z,0.48
2023-02-07T19:46:32.303Z,0.45
2023-02-07T19:48:59.703Z,0.40
2023-02-07T19:51:29.642Z,0.58
2023-02-07T19:54:15.372Z,0.53
2023-02-07T19:57:00.859Z,0.38
2023-02-07T19:59:27.820Z,0.35
2023-02-07T20:01:55.083Z,0.47
2023-02-07T20:04:21.887Z,0.41
2023-02-07T20:06:48.776Z,0.47
2023-02-07T20:09:15.600Z,0.29
2023-02-07T20:11:44.273Z,0.39
2023-02-07T20:14:11.471Z,0.32
2023-02-07T20:16:39.335Z,0.42
2023-02-07T20:19:07.595Z,0.24
2023-02-07T20:21:35.989Z,0.31
2023-02-07T20:24:03.325Z,0.26
2023-02-07T20:26:33.502Z,0.25
2023-02-07T20:29:02.673Z,0.34
2023-02-07T20:31:32.138Z,0.36
2023-02-07T20:33:59.943Z,0.36
2023-02-07T20:36:27.090Z,0.18
2023-02-07T20:38:56.375Z,0.32
2023-02-07T20:41:31.464Z,0.15
2023-02-07T20:43:59.636Z,0.11
2023-02-07T20:46:28.490Z,0.15
2023-02-07T20:49:00.866Z,-0.04
2023-02-07T20:51:29.424Z,-0.04
2023-02-07T20:53:59.720Z,0.16
2023-02-07T20:56:28.041Z,0.06
2023-02-07T20:58:55.110Z,0.02
2023-02-07T21:01:27.223Z,-0.08
2023-02-07T21:03:56.058Z,-0.01
2023-02-07T21:06:24.161Z,0.06
2023-02-07T21:08:58.758Z,0.12
2023-02-07T21:11:28.375Z,-0.04
2023-02-07T21:13:55.241Z,0.07
2023-02-07T21:16:22.462Z,0.08
2023-02-07T21:18:49.287Z,-0.24
2023-02-07T21:21:16.638Z,0.03
2023-02-07T21:23:43.702Z,-0.06
2023-02-07T21:26:13.110Z,-0.03
2023-02-07T21:28:40.550Z,-0.07
2023-02-07T21:31:22.038Z,-0.18
2023-02-07T21:33:50.054Z,-0.24
2023-02-07T21:36:25.350Z,-0.09
2023-02-07T21:39:12.325Z,-0.11
2023-02-07T21:41:42.370Z,-0.16
2023-02-07T21:44:11.248Z,-0.13
2023-02-07T21:46:39.727Z,-0.14
2023-02-07T21:49:16.267Z,-0.05
2023-02-07T21:51:44.969Z,-0.13
2023-02-07T21:54:12.086Z,-0.17
2023-02-07T21:56:41.166Z,-0.11
2023-02-07T21:59:12.672Z,-0.23
2023-02-07T22:01:39.899Z,-0.01
2023-02-07T22:04:10.575Z,-0.01
2023-02-07T22:06:43.403Z,-0.11
2023-02-07T22:09:15.240Z,0.02
2023-02-07T22:11:43.022Z,-0.05
2023-02-07T22:14:12.192Z,-0.22
2023-02-07T22:16:39.090Z,-0.16
2023-02-07T22:19:07.232Z,-0.04
2023-02-07T22:21:35.896Z,-0.13
2023-02-07T22:24:04.376Z,-0.16
2023-02-07T22:26:32.079Z,-0.03
2023-02-07T22:29:08.442Z,-0.09
2023-02-07T22:31:36.758Z,0.05
2023-02-07T22:34:07.874Z,0.07
2023-02-07T22:36:37.652Z,-0.01
2023-02-07T22:39:06.636Z,0.01
2023-02-07T22:41:33.965Z,0.19
2023-02-07T22:44:01.602Z,0.05
2023-02-07T22:46:29.084Z,0.09
2023-02-07T22:48:56.369Z,0.11
2023-02-07T22:51:23.306Z,0.14
2023-02-07T22:54:09.656Z,0.06
2023-02-07T22:56:38.292Z,-0.11
2023-02-07T22:59:05.947Z,0.01
2023-02-07T23:01:35.783Z,-0.07
2023-02-07T23:04:04.454Z,-0.11
2023-02-07T23:06:32.743Z,0.01
2023-02-07T23:09:00.176Z,-0.18
2023-02-07T23:11:27.583Z,-0.05
2023-02-07T23:13:55.346Z,-0.19
2023-02-07T23:16:25.884Z,0.01
2023-02-07T23:18:56.558Z,-0.07
2023-02-07T23:21:24.571Z,-0.05
2023-02-07T23:23:52.020Z,-0.02
2023-02-07T23:26:21.704Z,0.02
2023-02-07T23:28:49.255Z,-0.12
2023-02-07T23:31:18.216Z,-0.02
2023-02-07T23:33:45.139Z,-0.08
2023-02-07T23:36:12.688Z,-0.02
2023-02-07T23:38:40.745Z,-0.15
2023-02-07T23:41:08.057Z,-0.07
2023-02-07T23:43:38.998Z,-0.22
2023-02-07T23:46:07.149Z,-0.12
2023-02-07T23:48:38.091Z,-0.17
2023-02-07T23:51:06.745Z,-0.06
2023-02-07T23:53:34.147Z,0.17
2023-02-07T23:56:01.620Z,0.14
2023-02-07T23:58:28.538Z,0.05
